Time;durP1;ratioP1;P1;durP2;ratioP2;P2;SDS_P1;SDS_P2;PMS_P1;PMS_P2;Temp;Humidity;BMP_temperature;BMP_pressure;BME280_temperature;BME280_humidity;BME280_pressure;Samples;Min_cycle;Max_cycle;Signal;HPM_P1;HPM_P2
2022/12/12 00:01:33;;;;;;;28.30;18.30;;;0.40;99.90;;;;;;5032454;28;20629;-64
2022/12/12 00:03:59;;;;;;;23.97;15.93;;;0.40;99.90;;;;;;4998351;28;20038;-63
2022/12/12 00:06:26;;;;;;;25.55;16.65;;;0.40;99.90;;;;;;4995739;28;20077;-64
2022/12/12 00:08:52;;;;;;;26.77;17.13;;;0.40;99.90;;;;;;4997269;28;20129;-65
2022/12/12 00:11:18;;;;;;;23.85;17.13;;;0.40;99.90;;;;;;4999246;28;20038;-64
2022/12/12 00:13:44;;;;;;;24.55;16.92;;;0.40;99.90;;;;;;5004448;28;20085;-64
2022/12/12 00:16:11;;;;;;;24.80;16.90;;;0.40;99.90;;;;;;4998228;28;20132;-64
2022/12/12 00:18:37;;;;;;;26.52;16.75;;;0.40;99.90;;;;;;4998778;28;20039;-65
2022/12/12 00:21:05;;;;;;;25.08;17.85;;;0.40;99.90;;;;;;5000389;28;20038;-63
2022/12/12 00:23:31;;;;;;;24.17;16.52;;;0.50;99.90;;;;;;4999076;28;20120;-64
2022/12/12 00:25:59;;;;;;;26.63;16.63;;;0.40;99.90;;;;;;4994122;28;20128;-64
2022/12/12 00:28:27;;;;;;;26.40;16.58;;;0.40;99.90;;;;;;5001447;28;20054;-63
2022/12/12 00:30:53;;;;;;;26.90;17.10;;;0.40;99.90;;;;;;4998306;28;20078;-65
2022/12/12 00:33:19;;;;;;;27.33;17.27;;;0.40;99.90;;;;;;4998203;28;20037;-64
2022/12/12 00:35:48;;;;;;;25.27;15.85;;;0.40;99.90;;;;;;4995211;28;20410;-64
2022/12/12 00:38:13;;;;;;;24.17;15.68;;;0.40;99.90;;;;;;5001015;28;20581;-64
2022/12/12 00:40:39;;;;;;;21.85;15.80;;;0.40;99.90;;;;;;4996976;28;20046;-64
2022/12/12 00:43:05;;;;;;;25.42;16.75;;;0.40;99.90;;;;;;5000215;28;20411;-64
2022/12/12 00:45:30;;;;;;;24.77;16.52;;;0.40;99.90;;;;;;5000897;28;20048;-65
2022/12/12 00:47:56;;;;;;;25.45;16.45;;;0.40;99.90;;;;;;4996198;28;20148;-64
2022/12/12 00:50:22;;;;;;;24.95;17.23;;;0.40;99.90;;;;;;4999112;28;20085;-64
2022/12/12 00:52:48;;;;;;;24.02;16.02;;;0.40;99.90;;;;;;4999870;28;20049;-65
2022/12/12 00:55:13;;;;;;;24.70;16.63;;;0.40;99.90;;;;;;5026876;28;20402;-64
2022/12/12 00:57:39;;;;;;;25.02;16.33;;;0.40;99.90;;;;;;5001929;28;20354;-63
2022/12/12 01:00:07;;;;;;;23.15;15.98;;;0.40;99.90;;;;;;5001361;28;20113;-63
2022/12/12 01:02:33;;;;;;;25.20;15.85;;;0.40;99.90;;;;;;4999771;28;20042;-64
2022/12/12 01:04:59;;;;;;;23.17;16.23;;;0.50;99.90;;;;;;4998643;28;20393;-64
2022/12/12 01:07:25;;;;;;;25.90;17.42;;;0.40;99.90;;;;;;4997460;28;20109;-64
2022/12/12 01:09:51;;;;;;;25.60;16.75;;;0.40;99.90;;;;;;4999370;28;20030;-64
2022/12/12 01:12:16;;;;;;;24.13;16.13;;;0.40;99.90;;;;;;5001107;28;20040;-64
2022/12/12 01:14:42;;;;;;;24.48;16.67;;;0.40;99.90;;;;;;5001170;28;20026;-64
2022/12/12 01:17:08;;;;;;;23.40;15.35;;;0.30;99.90;;;;;;4996893;28;20145;-64
2022/12/12 01:19:34;;;;;;;23.92;14.93;;;0.40;99.90;;;;;;5001530;28;20145;-64
2022/12/12 01:21:59;;;;;;;23.30;15.48;;;0.40;99.90;;;;;;4999197;28;20081;-64
2022/12/12 01:24:25;;;;;;;23.77;15.30;;;0.40;99.90;;;;;;5001328;28;20437;-64
2022/12/12 01:26:51;;;;;;;24.85;16.35;;;0.40;99.90;;;;;;5001523;28;20030;-64
2022/12/12 01:29:16;;;;;;;26.27;16.90;;;0.40;99.90;;;;;;4999606;28;20418;-65
2022/12/12 01:31:42;;;;;;;23.83;16.17;;;0.40;99.90;;;;;;4992958;28;20046;-64
2022/12/12 01:34:08;;;;;;;24.38;15.43;;;0.40;99.90;;;;;;5000239;28;20047;-65
2022/12/12 01:36:34;;;;;;;23.77;15.15;;;0.40;99.90;;;;;;4999761;28;20077;-64
2022/12/12 01:38:59;;;;;;;22.80;15.63;;;0.40;99.90;;;;;;4999605;28;20048;-65
2022/12/12 01:41:26;;;;;;;26.00;15.95;;;0.40;99.90;;;;;;5029985;28;20046;-64
2022/12/12 01:43:52;;;;;;;21.75;15.00;;;0.40;99.90;;;;;;5002104;28;20109;-64
2022/12/12 01:46:24;;;;;;;20.40;14.40;;;0.40;99.90;;;;;;5000887;28;20078;-64
2022/12/12 01:49:05;;;;;;;23.67;15.88;;;0.40;99.90;;;;;;5003006;28;20095;-63
2022/12/12 01:51:31;;;;;;;23.92;15.40;;;0.40;99.90;;;;;;4999819;28;20077;-64
2022/12/12 01:54:06;;;;;;;24.38;15.80;;;0.40;99.90;;;;;;4999129;28;20045;-63
2022/12/12 01:56:33;;;;;;;22.67;15.30;;;0.40;99.90;;;;;;5002569;28;20150;-64
2022/12/12 01:59:02;;;;;;;20.52;14.90;;;0.40;99.90;;;;;;5001679;28;20058;-64
2022/12/12 02:01:28;;;;;;;22.40;15.27;;;0.40;99.90;;;;;;4998021;28;20082;-63
2022/12/12 02:03:54;;;;;;;22.73;15.30;;;0.40;99.90;;;;;;5001314;28;20042;-64
2022/12/12 02:06:25;;;;;;;20.17;13.85;;;0.40;99.90;;;;;;5004188;28;20091;-63
2022/12/12 02:08:53;;;;;;;22.83;15.25;;;0.40;99.90;;;;;;5000790;28;20480;-65
2022/12/12 02:11:19;;;;;;;20.98;14.63;;;0.40;99.90;;;;;;5005546;28;20046;-64
2022/12/12 02:13:45;;;;;;;22.00;14.45;;;0.40;99.90;;;;;;5003256;28;20276;-64
2022/12/12 02:16:30;;;;;;;19.70;13.63;;;0.40;99.90;;;;;;4999477;28;20379;-64
2022/12/12 02:19:02;;;;;;;;;;;0.40;99.90;;;;;;5017712;28;20042;-63
2022/12/12 02:21:53;;;;;;;24.60;15.02;;;0.30;99.90;;;;;;5000098;28;20008;-65
2022/12/12 02:24:19;;;;;;;20.45;14.20;;;0.30;99.90;;;;;;4999684;28;20038;-65
2022/12/12 02:27:05;;;;;;;21.80;14.68;;;0.30;99.90;;;;;;5004315;28;20073;-64
2022/12/12 02:29:58;;;;;;;22.00;14.90;;;0.30;99.90;;;;;;4995948;28;20110;-64
2022/12/12 02:32:48;;;;;;;23.13;15.43;;;0.30;99.90;;;;;;5003481;28;20486;-64
2022/12/12 02:35:37;;;;;;;21.50;14.60;;;0.40;99.90;;;;;;4998596;28;20124;-63
2022/12/12 02:38:21;;;;;;;21.08;14.88;;;0.40;99.90;;;;;;4996026;28;20128;-64
2022/12/12 02:41:11;;;;;;;21.75;15.32;;;0.30;99.90;;;;;;5005165;28;20121;-64
2022/12/12 02:43:49;;;;;;;20.48;13.82;;;0.30;99.90;;;;;;5003306;28;20212;-65
2022/12/12 02:46:42;;;;;;;19.45;13.68;;;0.40;99.90;;;;;;4998811;28;20498;-63
2022/12/12 02:49:18;;;;;;;21.73;14.00;;;0.30;99.90;;;;;;4995042;28;20137;-65
2022/12/12 02:51:46;;;;;;;18.13;13.50;;;0.30;99.90;;;;;;5002525;28;20065;-64
2022/12/12 02:54:14;;;;;;;21.73;14.13;;;0.30;99.90;;;;;;5000437;28;20041;-64
2022/12/12 02:56:51;;;;;;;19.80;13.38;;;0.30;99.90;;;;;;5000842;28;20050;-64
2022/12/12 02:59:28;;;;;;;20.50;14.10;;;0.40;99.90;;;;;;4997611;28;20084;-64
2022/12/12 03:02:10;;;;;;;18.13;12.93;;;0.30;99.90;;;;;;4999527;28;20052;-63
2022/12/12 03:08:06;;;;;;;20.55;14.13;;;0.30;99.90;;;;;;5013179;28;20141;-64
2022/12/12 03:10:57;;;;;;;19.95;14.00;;;0.30;99.90;;;;;;4999518;28;20050;-64
2022/12/12 03:13:52;;;;;;;21.70;13.88;;;0.30;99.90;;;;;;5001024;28;20037;-63
2022/12/12 03:16:20;;;;;;;20.33;14.43;;;0.30;99.90;;;;;;5004898;28;20532;-64
2022/12/12 03:19:24;;;;;;;19.08;13.32;;;0.30;99.90;;;;;;5003979;28;20038;-64
2022/12/12 03:22:10;;;;;;;21.95;14.35;;;0.30;99.90;;;;;;4998992;28;20633;-64
2022/12/12 03:24:58;;;;;;;21.35;14.60;;;0.30;99.90;;;;;;5002024;28;20035;-65
2022/12/12 03:27:49;;;;;;;21.65;13.95;;;0.30;99.90;;;;;;5004016;28;20080;-64
2022/12/12 03:30:18;;;;;;;20.45;14.05;;;0.30;99.90;;;;;;4988569;28;20044;-64
2022/12/12 03:32:54;;;;;;;21.20;14.13;;;0.30;99.90;;;;;;5001467;28;20034;-63
2022/12/12 03:35:32;;;;;;;24.30;13.40;;;0.40;99.90;;;;;;4997442;28;20139;-65
2022/12/12 03:38:25;;;;;;;22.30;15.18;;;0.30;99.90;;;;;;5003084;28;20038;-64
2022/12/12 03:40:57;;;;;;;23.35;15.05;;;0.30;99.90;;;;;;4998645;28;20366;-64
2022/12/12 03:43:39;;;;;;;21.30;14.02;;;0.30;99.90;;;;;;5004171;28;20038;-63
2022/12/12 03:46:19;;;;;;;20.50;14.70;;;0.30;99.90;;;;;;4995921;28;20477;-64
2022/12/12 03:49:07;;;;;;;21.60;14.13;;;0.30;99.90;;;;;;5004873;28;20041;-63
2022/12/12 03:51:41;;;;;;;21.30;14.63;;;0.30;99.90;;;;;;4997602;28;20049;-63
2022/12/12 03:54:26;;;;;;;20.60;14.97;;;0.30;99.90;;;;;;4995972;28;20041;-64
2022/12/12 03:57:08;;;;;;;20.40;14.50;;;0.30;99.90;;;;;;4993539;28;20052;-64
2022/12/12 03:59:41;;;;;;;20.33;14.65;;;0.40;99.90;;;;;;5001649;28;20065;-63
2022/12/12 04:02:15;;;;;;;19.95;14.20;;;0.30;99.90;;;;;;4997321;28;20038;-63
2022/12/12 04:04:59;;;;;;;22.05;14.77;;;0.40;99.90;;;;;;4999014;28;20080;-64
2022/12/12 04:07:34;;;;;;;21.60;13.77;;;0.30;99.90;;;;;;4996393;28;20045;-64
2022/12/12 04:13:06;;;;;;;20.27;14.55;;;0.40;99.90;;;;;;4998376;28;20044;-65
2022/12/12 04:15:50;;;;;;;20.58;14.27;;;0.40;99.90;;;;;;4999394;28;20042;-64
2022/12/12 04:18:34;;;;;;;24.02;15.23;;;0.40;99.90;;;;;;4996735;28;20131;-64
2022/12/12 04:24:24;;;;;;;23.30;15.43;;;0.40;99.90;;;;;;4999502;28;20061;-64
2022/12/12 04:27:00;;;;;;;20.98;14.07;;;0.40;99.90;;;;;;4991196;28;20127;-65
2022/12/12 04:29:37;;;;;;;20.90;15.38;;;0.30;99.90;;;;;;5002751;28;20042;-64
2022/12/12 04:32:11;;;;;;;22.67;15.52;;;0.40;99.90;;;;;;4994490;28;20520;-63
2022/12/12 04:34:41;;;;;;;23.60;15.98;;;0.40;99.90;;;;;;4998291;28;20145;-64
2022/12/12 04:37:12;;;;;;;22.92;15.63;;;0.40;99.90;;;;;;4998372;28;20559;-65
2022/12/12 04:39:40;;;;;;;23.45;15.02;;;0.40;99.90;;;;;;5000713;28;20050;-64
2022/12/12 04:42:09;;;;;;;21.80;14.80;;;0.40;99.90;;;;;;4998285;28;20050;-63
2022/12/12 04:44:37;;;;;;;21.17;15.05;;;0.40;99.90;;;;;;4997425;28;20056;-65
2022/12/12 04:47:06;;;;;;;21.27;14.88;;;0.40;99.90;;;;;;4997306;28;20035;-65
2022/12/12 04:49:34;;;;;;;21.00;14.90;;;0.40;99.90;;;;;;4998945;28;20084;-64
2022/12/12 04:52:10;;;;;;;22.90;14.45;;;0.40;99.90;;;;;;4999756;28;20545;-64
2022/12/12 04:54:47;;;;;;;19.23;14.32;;;0.40;99.90;;;;;;5001638;28;20595;-63
2022/12/12 04:57:20;;;;;;;19.35;13.82;;;0.40;99.90;;;;;;5001164;28;20457;-64
2022/12/12 04:59:47;;;;;;;22.85;15.52;;;0.40;99.90;;;;;;5002324;28;20054;-64
2022/12/12 05:02:30;;;;;;;20.35;14.25;;;0.40;99.90;;;;;;4995110;28;20537;-65
2022/12/12 05:05:01;;;;;;;21.88;15.30;;;0.40;99.90;;;;;;5001360;28;21232;-64
2022/12/12 05:07:39;;;;;;;21.90;15.10;;;0.40;99.90;;;;;;5002321;28;20077;-63
2022/12/12 05:10:17;;;;;;;21.95;14.77;;;0.40;99.90;;;;;;4996643;28;20046;-65
2022/12/12 05:12:46;;;;;;;22.63;14.52;;;0.40;99.90;;;;;;5001903;28;20140;-65
2022/12/12 05:15:13;;;;;;;22.55;16.30;;;0.40;99.90;;;;;;4995740;28;20054;-65
2022/12/12 05:17:45;;;;;;;21.80;15.05;;;0.40;99.90;;;;;;5001167;28;20042;-63
2022/12/12 05:20:12;;;;;;;21.33;14.75;;;0.40;99.90;;;;;;4997762;28;20042;-63
2022/12/12 05:22:38;;;;;;;22.20;15.45;;;0.40;99.90;;;;;;4998821;28;20104;-63
2022/12/12 05:25:04;;;;;;;21.10;14.70;;;0.50;99.90;;;;;;4996555;28;20049;-63
2022/12/12 05:27:30;;;;;;;18.83;13.88;;;0.40;99.90;;;;;;4997611;28;20141;-65
2022/12/12 05:29:55;;;;;;;19.77;14.13;;;0.40;99.90;;;;;;4999472;28;20113;-65
2022/12/12 05:32:21;;;;;;;20.98;14.73;;;0.40;99.90;;;;;;4997514;28;20038;-64
2022/12/12 05:34:47;;;;;;;25.73;16.67;;;0.40;99.90;;;;;;4998350;28;20498;-64
2022/12/12 05:37:12;;;;;;;22.58;15.18;;;0.40;99.90;;;;;;4997727;28;20050;-64
2022/12/12 05:39:38;;;;;;;23.20;16.45;;;0.40;99.90;;;;;;4996411;28;20074;-63
2022/12/12 05:42:04;;;;;;;20.58;14.68;;;0.40;99.90;;;;;;5000340;28;20381;-63
2022/12/12 05:44:29;;;;;;;21.63;15.50;;;0.40;99.90;;;;;;4999060;28;20050;-64
2022/12/12 05:46:55;;;;;;;19.42;14.32;;;0.40;99.90;;;;;;4998769;28;21259;-64
2022/12/12 05:49:21;;;;;;;21.83;15.15;;;0.40;99.90;;;;;;5002081;28;20133;-64
2022/12/12 05:51:46;;;;;;;22.70;15.85;;;0.40;99.90;;;;;;4998484;28;20046;-64
2022/12/12 05:54:12;;;;;;;20.05;14.07;;;0.40;99.90;;;;;;5004025;28;20068;-64
2022/12/12 05:56:38;;;;;;;23.02;15.05;;;0.40;99.90;;;;;;4997842;28;20506;-64
2022/12/12 05:59:04;;;;;;;21.08;13.50;;;0.30;99.90;;;;;;4999948;28;20058;-64
2022/12/12 06:01:31;;;;;;;20.38;14.02;;;0.40;99.90;;;;;;4993908;28;20053;-64
2022/12/12 06:03:56;;;;;;;22.00;14.65;;;0.40;99.90;;;;;;4992965;28;20046;-65
2022/12/12 06:06:22;;;;;;;20.75;15.18;;;0.30;99.90;;;;;;4994906;28;20085;-64
2022/12/12 06:08:48;;;;;;;19.48;14.02;;;0.30;99.90;;;;;;4998314;28;20062;-64
2022/12/12 06:11:13;;;;;;;21.23;14.85;;;0.30;99.90;;;;;;4994654;28;20046;-64
2022/12/12 06:13:39;;;;;;;19.95;14.40;;;0.30;99.90;;;;;;4994294;28;20042;-65
2022/12/12 06:16:09;;;;;;;21.10;14.07;;;0.30;99.90;;;;;;5001165;28;20442;-64
2022/12/12 06:18:35;;;;;;;22.15;15.05;;;0.30;99.90;;;;;;4996759;28;20101;-65
2022/12/12 06:21:06;;;;;;;24.05;16.05;;;0.40;99.90;;;;;;4997973;28;20104;-64
2022/12/12 06:23:43;;;;;;;24.05;16.15;;;0.40;99.90;;;;;;4998221;28;20349;-63
2022/12/12 06:26:10;;;;;;;22.42;15.07;;;0.30;99.90;;;;;;4994669;28;20251;-65
2022/12/12 06:28:37;;;;;;;22.27;15.07;;;0.30;99.90;;;;;;4997824;28;20467;-66
2022/12/12 06:31:03;;;;;;;20.48;15.68;;;0.30;99.90;;;;;;4994620;28;20041;-64
2022/12/12 06:33:31;;;;;;;22.63;15.15;;;0.30;99.90;;;;;;4997435;28;20037;-65
2022/12/12 06:36:02;;;;;;;19.38;13.90;;;0.30;99.90;;;;;;4996508;28;20193;-63
2022/12/12 06:38:29;;;;;;;20.80;14.63;;;0.30;99.90;;;;;;4999183;28;20441;-64
2022/12/12 06:40:55;;;;;;;24.27;15.63;;;0.30;99.90;;;;;;4994836;28;20046;-64
2022/12/12 06:43:21;;;;;;;21.52;15.10;;;0.30;99.90;;;;;;5000805;28;20086;-65
2022/12/12 06:45:47;;;;;;;20.63;14.88;;;0.30;99.90;;;;;;4997857;28;20410;-64
2022/12/12 06:48:12;;;;;;;18.95;15.07;;;0.30;99.90;;;;;;5029618;28;20069;-64
2022/12/12 06:50:39;;;;;;;20.88;15.00;;;0.30;99.90;;;;;;4994162;28;20121;-64
2022/12/12 06:53:05;;;;;;;20.02;14.43;;;0.30;99.90;;;;;;4995113;28;20399;-64
2022/12/12 06:55:31;;;;;;;21.63;15.75;;;0.30;99.90;;;;;;4998653;28;20042;-64
2022/12/12 06:57:56;;;;;;;21.08;14.23;;;0.20;99.90;;;;;;4995278;28;20133;-63
2022/12/12 07:00:22;;;;;;;21.38;14.85;;;0.30;99.90;;;;;;4998634;28;20062;-63
2022/12/12 07:02:49;;;;;;;21.17;15.00;;;0.30;99.90;;;;;;5011443;28;20038;-64
2022/12/12 07:05:15;;;;;;;23.33;15.43;;;0.20;99.90;;;;;;4997204;28;20053;-65
2022/12/12 07:07:41;;;;;;;23.30;15.20;;;0.30;99.90;;;;;;4997323;28;20042;-64
2022/12/12 07:10:07;;;;;;;22.05;15.52;;;0.30;99.90;;;;;;5000443;28;20041;-64
2022/12/12 07:12:33;;;;;;;21.35;14.73;;;0.20;99.90;;;;;;4999223;28;20042;-64
2022/12/12 07:14:58;;;;;;;20.45;14.73;;;0.20;99.90;;;;;;4999413;28;20050;-66
2022/12/12 07:17:24;;;;;;;22.67;14.90;;;0.30;99.90;;;;;;4997271;28;20479;-64
2022/12/12 07:19:50;;;;;;;20.33;14.52;;;0.20;99.90;;;;;;5000977;28;20041;-64
2022/12/12 07:22:16;;;;;;;22.02;14.95;;;0.20;99.90;;;;;;4999590;28;20053;-65
2022/12/12 07:24:42;;;;;;;19.98;14.73;;;0.20;99.90;;;;;;5000295;28;20113;-64
2022/12/12 07:27:08;;;;;;;20.92;14.73;;;0.20;99.90;;;;;;5000449;28;20057;-64
2022/12/12 07:29:33;;;;;;;22.35;15.55;;;0.20;99.90;;;;;;5000054;28;20153;-64
2022/12/12 07:31:59;;;;;;;22.75;14.63;;;0.20;99.90;;;;;;5001175;28;20379;-65
2022/12/12 07:34:28;;;;;;;20.60;15.13;;;0.20;99.90;;;;;;5001319;28;20029;-64
2022/12/12 07:36:54;;;;;;;22.95;14.52;;;0.20;99.90;;;;;;5001736;28;20117;-64
2022/12/12 07:39:19;;;;;;;21.67;14.88;;;0.20;99.90;;;;;;4999574;28;20569;-64
2022/12/12 07:41:45;;;;;;;20.40;14.98;;;0.20;99.90;;;;;;5001676;28;20033;-64
2022/12/12 07:44:11;;;;;;;19.83;14.65;;;0.20;99.90;;;;;;5000831;28;20042;-64
2022/12/12 07:46:37;;;;;;;19.98;14.63;;;0.20;99.90;;;;;;5002593;28;20070;-64
2022/12/12 07:49:03;;;;;;;22.13;14.93;;;0.20;99.90;;;;;;4998712;28;20058;-64
2022/12/12 07:51:29;;;;;;;20.55;14.98;;;0.20;99.90;;;;;;4999033;28;20398;-65
2022/12/12 07:53:56;;;;;;;24.35;15.07;;;0.20;99.90;;;;;;5001201;28;20042;-66
2022/12/12 07:56:22;;;;;;;21.77;15.02;;;0.20;99.90;;;;;;5001738;28;20413;-64
2022/12/12 07:58:48;;;;;;;20.80;14.90;;;0.20;99.90;;;;;;4996481;28;20104;-64
2022/12/12 08:01:17;;;;;;;20.20;14.90;;;0.20;99.90;;;;;;4998161;28;20096;-64
2022/12/12 08:03:44;;;;;;;21.02;14.60;;;0.20;99.90;;;;;;4998639;28;20129;-64
2022/12/12 08:06:11;;;;;;;21.95;15.25;;;0.20;99.90;;;;;;4997913;28;20331;-65
2022/12/12 08:08:36;;;;;;;21.30;14.77;;;0.20;99.90;;;;;;4999323;28;20366;-64
2022/12/12 08:11:10;;;;;;;19.48;14.23;;;0.20;99.90;;;;;;4995768;28;20037;-65
2022/12/12 08:13:39;;;;;;;23.05;15.57;;;0.20;99.90;;;;;;4995992;28;20073;-65
2022/12/12 08:16:10;;;;;;;17.83;13.57;;;0.20;99.90;;;;;;4993812;28;20137;-64
2022/12/12 08:18:36;;;;;;;21.50;15.43;;;0.30;99.90;;;;;;4998802;28;20050;-65
2022/12/12 08:21:07;;;;;;;20.38;14.93;;;0.30;99.90;;;;;;4999897;28;20045;-65
2022/12/12 08:23:32;;;;;;;21.60;15.20;;;0.30;99.90;;;;;;4997429;28;20194;-65
2022/12/12 08:26:07;;;;;;;23.10;15.45;;;0.30;99.90;;;;;;4996244;28;20145;-65
2022/12/12 08:28:34;;;;;;;21.40;15.20;;;0.30;99.90;;;;;;4996153;28;20045;-64
2022/12/12 08:30:59;;;;;;;22.20;15.30;;;0.40;99.90;;;;;;4998295;28;20053;-64
2022/12/12 08:33:25;;;;;;;20.02;14.68;;;0.40;99.90;;;;;;5003163;28;20029;-64
2022/12/12 08:35:51;;;;;;;22.50;15.95;;;0.40;99.90;;;;;;4998134;28;20130;-65
2022/12/12 08:38:17;;;;;;;19.92;15.43;;;0.40;99.90;;;;;;5016522;28;20042;-65
2022/12/12 08:40:43;;;;;;;22.63;14.90;;;0.40;99.90;;;;;;5001921;28;20588;-65
2022/12/12 08:43:09;;;;;;;20.33;15.15;;;0.50;99.90;;;;;;4998890;28;20049;-65
2022/12/12 08:45:37;;;;;;;21.40;15.10;;;0.50;99.90;;;;;;5029945;28;20077;-65
2022/12/12 08:48:03;;;;;;;23.27;15.80;;;0.50;99.90;;;;;;5001339;28;20125;-65
2022/12/12 08:50:29;;;;;;;22.15;16.05;;;0.60;99.90;;;;;;4998413;28;20042;-65
2022/12/12 08:52:54;;;;;;;22.42;16.05;;;0.60;99.90;;;;;;4999767;28;20041;-65
2022/12/12 08:55:20;;;;;;;22.63;15.57;;;0.60;99.90;;;;;;5005353;28;20037;-65
2022/12/12 08:57:46;;;;;;;21.73;15.68;;;0.60;99.90;;;;;;5037236;28;20064;-65
2022/12/12 09:00:12;;;;;;;21.27;15.23;;;0.60;99.90;;;;;;5005499;28;20127;-64
2022/12/12 09:02:38;;;;;;;20.95;15.30;;;0.70;99.90;;;;;;5000077;28;20042;-65
2022/12/12 09:05:04;;;;;;;21.38;15.45;;;0.70;99.90;;;;;;5007075;28;20164;-65
2022/12/12 09:07:30;;;;;;;22.92;15.07;;;0.70;99.90;;;;;;5019929;28;20034;-65
2022/12/12 09:09:55;;;;;;;18.98;15.20;;;0.80;99.90;;;;;;5002082;28;20091;-64
2022/12/12 09:12:21;;;;;;;19.38;14.98;;;0.80;99.90;;;;;;5003536;28;20043;-64
2022/12/12 09:14:47;;;;;;;21.30;15.18;;;0.80;99.90;;;;;;5002618;28;20378;-65
2022/12/12 09:17:12;;;;;;;19.98;14.82;;;0.90;99.90;;;;;;5004475;28;20041;-65
2022/12/12 09:19:38;;;;;;;20.80;15.98;;;0.90;99.90;;;;;;5006218;28;20042;-65
2022/12/12 09:22:04;;;;;;;22.55;15.27;;;0.90;99.90;;;;;;5002192;28;20421;-65
2022/12/12 09:24:29;;;;;;;19.90;14.93;;;1.00;99.90;;;;;;5005096;28;20081;-64
2022/12/12 09:26:55;;;;;;;23.85;16.33;;;1.00;99.90;;;;;;5007377;28;20050;-65
2022/12/12 09:29:21;;;;;;;20.55;15.75;;;1.00;99.90;;;;;;5003108;28;20038;-64
2022/12/12 09:31:47;;;;;;;19.98;14.93;;;1.10;99.90;;;;;;5000872;28;20034;-64
2022/12/12 09:34:12;;;;;;;21.92;15.93;;;1.10;99.90;;;;;;5004550;28;20034;-64
2022/12/12 09:36:38;;;;;;;21.58;16.15;;;1.10;99.90;;;;;;4999778;28;20404;-64
2022/12/12 09:39:04;;;;;;;19.63;15.30;;;1.10;99.90;;;;;;5005039;28;20112;-65
2022/12/12 09:41:30;;;;;;;20.35;15.48;;;1.10;99.90;;;;;;5004107;28;20050;-65
2022/12/12 09:44:23;;;;;;;20.40;15.65;;;1.20;99.90;;;;;;5005249;28;20042;-64
2022/12/12 09:46:56;;;;;;;21.33;15.45;;;1.20;99.90;;;;;;5005793;28;20059;-64
2022/12/12 09:49:43;;;;;;;19.98;14.70;;;1.20;99.90;;;;;;5000603;28;20398;-65
2022/12/12 09:52:17;;;;;;;21.45;14.73;;;1.30;99.90;;;;;;5002963;28;20397;-65
2022/12/12 09:54:43;;;;;;;18.52;13.63;;;1.30;99.90;;;;;;5005644;28;20334;-65
2022/12/12 09:57:14;;;;;;;21.52;15.45;;;1.30;99.90;;;;;;5002260;28;20060;-65
2022/12/12 09:59:54;;;;;;;19.45;13.93;;;1.30;99.90;;;;;;5007857;28;20057;-65
2022/12/12 10:02:45;;;;;;;19.42;14.38;;;1.30;99.90;;;;;;5001533;28;20466;-63
2022/12/12 10:05:31;;;;;;;19.95;14.35;;;1.30;99.90;;;;;;5037524;28;20047;-65
2022/12/12 10:08:38;;;;;;;20.05;15.18;;;1.40;99.90;;;;;;5000121;28;20073;-63
2022/12/12 10:11:48;;;;;;;19.77;13.68;;;1.40;99.90;;;;;;4997231;28;20383;-64
2022/12/12 10:13:58;;;;;;;19.88;13.90;;;1.40;99.90;;;;;;5000583;28;20037;-64
2022/12/12 10:16:24;;;;;;;19.55;14.25;;;1.40;99.90;;;;;;5001583;28;20121;-64
2022/12/12 10:18:53;;;;;;;18.02;14.30;;;1.50;99.90;;;;;;4999984;28;20132;-64
2022/12/12 10:21:29;;;;;;;19.52;13.95;;;1.50;99.90;;;;;;5003677;28;20510;-64
2022/12/12 10:24:12;;;;;;;18.50;14.13;;;1.50;99.90;;;;;;5002834;28;20084;-63
2022/12/12 10:26:41;;;;;;;21.27;14.82;;;1.60;99.90;;;;;;5006044;28;20046;-64
2022/12/12 10:29:15;;;;;;;18.58;13.65;;;1.60;99.90;;;;;;5018397;28;20038;-64
2022/12/12 10:32:04;;;;;;;19.02;14.13;;;1.60;99.90;;;;;;4999925;28;20040;-63
2022/12/12 10:34:46;;;;;;;19.98;14.77;;;1.70;99.90;;;;;;5004338;28;20167;-63
2022/12/12 10:37:36;;;;;;;18.23;14.60;;;1.70;99.90;;;;;;5035593;28;20050;-63
2022/12/12 10:40:39;;;;;;;18.58;14.45;;;1.70;99.90;;;;;;5006064;28;20052;-65
2022/12/12 10:43:21;;;;;;;17.67;13.82;;;1.70;99.90;;;;;;4998616;28;20084;-64
2022/12/12 10:45:53;;;;;;;18.27;13.98;;;1.80;99.90;;;;;;5005272;28;20153;-65
2022/12/12 10:48:19;;;;;;;18.75;14.43;;;1.80;99.90;;;;;;5002307;28;20053;-65
2022/12/12 10:50:54;;;;;;;17.80;14.23;;;1.80;99.90;;;;;;5003895;28;20634;-65
2022/12/12 10:53:21;;;;;;;19.45;14.30;;;1.80;99.90;;;;;;4997083;28;20038;-66
2022/12/12 10:56:07;;;;;;;17.83;13.35;;;1.90;99.90;;;;;;5000732;28;20495;-64
2022/12/12 10:58:39;;;;;;;19.85;14.27;;;1.90;99.90;;;;;;4998491;28;20045;-65
2022/12/12 11:01:34;;;;;;;17.85;14.27;;;1.90;99.90;;;;;;4997099;28;20119;-64
2022/12/12 11:04:01;;;;;;;18.08;14.40;;;2.00;99.90;;;;;;4994347;28;20050;-64
2022/12/12 11:06:38;;;;;;;21.27;14.55;;;2.00;99.90;;;;;;5000078;28;20060;-65
2022/12/12 11:09:23;;;;;;;20.42;14.65;;;1.90;99.90;;;;;;4997131;28;20038;-65
2022/12/12 11:12:31;;;;;;;21.95;14.60;;;2.10;99.90;;;;;;5001069;28;20040;-65
2022/12/12 11:15:05;;;;;;;21.48;14.60;;;2.20;99.90;;;;;;4962900;28;20482;-64
2022/12/12 11:17:32;;;;;;;;;;;2.20;99.90;;;;;;4991044;28;20060;-65
2022/12/12 11:20:01;;;;;;;19.60;15.45;;;2.20;99.90;;;;;;4996672;28;19971;-65
2022/12/12 11:22:32;;;;;;;23.02;15.07;;;2.20;99.90;;;;;;4997654;28;20046;-65
2022/12/12 11:24:58;;;;;;;19.65;14.75;;;2.20;99.90;;;;;;4996535;28;20045;-64
2022/12/12 11:27:34;;;;;;;21.95;17.08;;;2.20;99.90;;;;;;4995420;28;20108;-65
2022/12/12 11:30:03;;;;;;;21.23;14.98;;;2.20;99.90;;;;;;5001781;28;20046;-64
2022/12/12 11:32:37;;;;;;;21.88;16.23;;;2.20;99.90;;;;;;4996381;28;20121;-64
2022/12/12 11:35:06;;;;;;;24.77;16.70;;;2.10;99.90;;;;;;4996701;28;20378;-65
2022/12/12 11:37:46;;;;;;;20.92;16.10;;;2.10;99.90;;;;;;5000001;28;20081;-65
2022/12/12 11:40:30;;;;;;;22.23;16.50;;;2.10;99.90;;;;;;4994373;28;20607;-65
2022/12/12 11:43:23;;;;;;;22.87;16.73;;;2.20;99.90;;;;;;4999097;28;20051;-64
2022/12/12 11:46:02;;;;;;;21.98;16.23;;;2.10;99.90;;;;;;4992747;28;20502;-64
2022/12/12 11:48:55;;;;;;;24.83;17.10;;;2.10;99.90;;;;;;5005344;28;20050;-64
2022/12/12 11:51:36;;;;;;;24.77;17.08;;;2.10;99.90;;;;;;4998539;28;20120;-64
2022/12/12 11:54:28;;;;;;;25.13;17.38;;;2.20;99.90;;;;;;4996362;28;20064;-64
2022/12/12 11:57:23;;;;;;;25.20;17.83;;;2.20;99.90;;;;;;4992924;28;20046;-65
2022/12/12 12:00:22;;;;;;;29.30;19.10;;;2.10;99.90;;;;;;5031230;28;20089;-65
2022/12/12 12:03:01;;;;;;;24.83;18.42;;;2.20;99.90;;;;;;4996711;28;20065;-65
2022/12/12 12:05:39;;;;;;;24.38;18.35;;;2.20;99.90;;;;;;4999671;28;20072;-64
2022/12/12 12:08:25;;;;;;;21.92;17.33;;;2.20;99.90;;;;;;5000191;28;20042;-65
2022/12/12 12:11:09;;;;;;;26.02;18.73;;;2.20;99.90;;;;;;5001459;28;20078;-64
2022/12/12 12:13:35;;;;;;;27.77;19.17;;;2.20;99.90;;;;;;4994557;28;20205;-64
2022/12/12 12:16:36;;;;;;;26.15;18.35;;;2.10;99.90;;;;;;4989303;28;20125;-64
2022/12/12 12:19:27;;;;;;;26.33;18.40;;;2.20;99.90;;;;;;4977887;28;20045;-64
2022/12/12 12:22:21;;;;;;;27.55;19.67;;;2.30;99.90;;;;;;4999028;28;20064;-64
2022/12/12 12:24:52;;;;;;;29.52;18.98;;;2.30;99.90;;;;;;5001923;28;20116;-65
2022/12/12 12:27:41;;;;;;;26.70;19.80;;;2.20;99.90;;;;;;4998856;28;20100;-65
2022/12/12 12:30:20;;;;;;;28.52;20.25;;;2.20;99.90;;;;;;5007059;28;20038;-64
2022/12/12 12:32:55;;;;;;;25.13;17.75;;;2.20;99.90;;;;;;4995649;28;20034;-64
2022/12/12 12:35:29;;;;;;;;;;;2.30;99.90;;;;;;5002900;28;20730;-64
2022/12/12 12:37:57;;;;;;;25.55;18.63;;;2.20;99.90;;;;;;5002481;28;19932;-64
2022/12/12 12:40:42;;;;;;;25.63;18.48;;;2.20;99.90;;;;;;5005619;28;20037;-64
2022/12/12 12:43:27;;;;;;;26.00;18.67;;;2.20;99.90;;;;;;5000457;28;20077;-65
2022/12/12 12:45:59;;;;;;;;;;;2.20;99.90;;;;;;4997902;28;20489;-64
2022/12/12 12:48:28;;;;;;;26.48;18.05;;;2.10;99.90;;;;;;5002605;28;19971;-64
2022/12/12 12:51:04;;;;;;;26.17;18.30;;;2.10;99.90;;;;;;5000338;28;20590;-65
2022/12/12 12:53:37;;;;;;;24.98;18.38;;;2.20;99.90;;;;;;5001358;28;20120;-64
2022/12/12 12:56:18;;;;;;;24.50;17.90;;;2.20;99.90;;;;;;5002575;28;20077;-64
2022/12/12 12:58:45;;;;;;;25.58;18.88;;;2.20;99.90;;;;;;5005053;28;20107;-64
2022/12/12 13:01:17;;;;;;;26.95;19.40;;;2.20;99.90;;;;;;4998062;28;20046;-64
2022/12/12 13:04:01;;;;;;;27.10;18.38;;;2.20;99.90;;;;;;5002840;28;20040;-64
2022/12/12 13:06:51;;;;;;;28.83;17.88;;;2.20;99.90;;;;;;5000903;28;20556;-63
2022/12/12 13:09:31;;;;;;;26.80;18.08;;;2.20;99.90;;;;;;4994355;28;20037;-63
2022/12/12 13:12:03;;;;;;;26.20;17.05;;;2.20;99.90;;;;;;5000641;28;20145;-64
2022/12/12 13:14:50;;;;;;;26.92;18.88;;;2.10;99.90;;;;;;4999327;28;20048;-64